Lucy Hannah — WDC7682 — position and weather

sailwx.info

Track history (hours):
 
Tides and Currents Weather Stations Pressure Air Temp Water Temp Dewpoint Dewpoint Depression Visibility Wind Speed Wind Dir Waves Ship Positions

Lucy Hannah

Owner: D&S Marine Service,LLC., Houma, LA. More information available from US FCC via Universal Licensing System and Coast Guard Vessel Documentation Center.

Last reported at 2018-Jun-15 09:01 UTC. Time now 2018-Jun-24 10:47 UTC.
Position N 29°51' W 091°54'.
Warning: this ship's position is 9 days out of date.

Length 201 m; draft 3 m.

Type: . MMSI: 367075110.

Date/timePositionNaut miles runAvg speedWind from/ knotsBaromVisibWave heightAir tempDewpointWater temp
2018-Jun-15 09:01N 29°51' W 091°54'0 4.9
2018-Jun-15 08:59N 29°51' W 091°54'2 4.6
2018-Jun-15 08:30N 29°51' W 091°57'2 4.4
2018-Jun-15 08:00N 29°50' W 091°59'2 4.8
2018-Jun-15 07:30N 29°49' W 092°02'2 4.5
2018-Jun-15 07:00N 29°48' W 092°04'2 4.5
2018-Jun-15 06:30N 29°48' W 092°07'2 4.4
2018-Jun-15 06:00N 29°47' W 092°09'2 3.8
2018-Jun-15 05:30N 29°47' W 092°11'1 2.2
2018-Jun-15 05:00N 29°47' W 092°12'2 3.2
2018-Jun-15 04:30N 29°48' W 092°14'1 1.1
2018-Jun-15 04:00N 29°48' W 092°15'0 0.0
2018-Jun-15 03:30N 29°48' W 092°15'0 0.0
2018-Jun-15 03:00N 29°48' W 092°15'1 2.0
2018-Jun-15 02:30N 29°48' W 092°16'2 4.0
2018-Jun-15 02:00N 29°50' W 092°18'2 3.7
2018-Jun-15 01:30N 29°50' W 092°20'2 3.9
2018-Jun-15 01:00N 29°51' W 092°22'3 3.8
2018-Jun-15 00:18N 29°53' W 092°24'1 4.1
2018-Jun-15 00:00N 29°53' W 092°25'33 3.9
2018-Jun-14 15:40N 29°56' W 093°03'1 3.5
2018-Jun-14 15:23N 29°56' W 093°04'2 3.9
2018-Jun-14 14:53N 29°56' W 093°06'2 4.2
2018-Jun-14 14:30N 29°56' W 093°08'2 3.9
2018-Jun-14 14:00N 29°57' W 093°10'2 3.4
2018-Jun-14 13:30N 29°58' W 093°11'1 2.6
2018-Jun-14 13:00N 29°59' W 093°12'1 3.0
2018-Jun-14 12:30N 30°00' W 093°14'1 2.2
2018-Jun-14 12:00N 30°01' W 093°14'2 3.1
2018-Jun-14 11:30N 30°02' W 093°15'1 2.8
2018-Jun-14 11:00N 30°03' W 093°16'1 2.6
2018-Jun-14 10:30N 30°05' W 093°17'1 2.4
2018-Jun-14 10:00N 30°05' W 093°18'0 0.4
2018-Jun-14 09:30N 30°05' W 093°18'1 1.8
2018-Jun-14 09:00N 30°06' W 093°19'0 0.4
2018-Jun-14 08:30N 30°06' W 093°19'0 0.1
2018-Jun-14 08:00N 30°06' W 093°19'0 0.0
2018-Jun-14 07:30N 30°06' W 093°19'0 0.0
2018-Jun-14 07:00N 30°06' W 093°19'0 0.0
2018-Jun-14 06:30N 30°06' W 093°19'0 0.0
2018-Jun-14 06:00N 30°06' W 093°19'0 0.0
2018-Jun-14 05:30N 30°06' W 093°19'0 0.1
2018-Jun-14 05:00N 30°06' W 093°19'0 0.0
2018-Jun-14 04:30N 30°06' W 093°19'0 0.0
2018-Jun-14 04:00N 30°06' W 093°19'0 0.0
2018-Jun-14 03:30N 30°06' W 093°19'0 0.1
2018-Jun-14 03:00N 30°06' W 093°19'0 0.1
2018-Jun-14 02:30N 30°06' W 093°19'0 0.0
2018-Jun-14 02:00N 30°06' W 093°19'0 0.0
2018-Jun-14 01:30N 30°06' W 093°19'0 0.0
2018-Jun-14 01:00N 30°06' W 093°19'0 0.0
2018-Jun-14 00:30N 30°06' W 093°19'0 0.0
2018-Jun-14 00:00N 30°06' W 093°19'0 0.0
2018-Jun-13 23:30N 30°06' W 093°19'0 0.0
2018-Jun-13 23:00N 30°06' W 093°19'0 0.1
2018-Jun-13 22:30N 30°06' W 093°19'0 0.0
2018-Jun-13 22:00N 30°06' W 093°19'0 0.0
2018-Jun-13 21:30N 30°06' W 093°19'0 0.0
2018-Jun-13 21:00N 30°06' W 093°19'0 0.0
2018-Jun-13 20:30N 30°06' W 093°19'0 0.1
2018-Jun-13 20:00N 30°06' W 093°19'0 0.0
2018-Jun-13 19:30N 30°06' W 093°19'0 0.0
2018-Jun-13 19:00N 30°06' W 093°19'0 0.0
2018-Jun-13 18:30N 30°06' W 093°19'0 0.0
2018-Jun-13 18:00N 30°06' W 093°19'0 0.0
2018-Jun-13 17:30N 30°06' W 093°19'0 0.2
2018-Jun-13 17:00N 30°06' W 093°19'0 0.0
2018-Jun-13 16:30N 30°06' W 093°19'0 0.2
2018-Jun-13 16:00N 30°06' W 093°19'2 3.2
2018-Jun-13 15:30N 30°05' W 093°20'1 2.6
2018-Jun-13 15:00N 30°04' W 093°21'1 2.4
2018-Jun-13 14:30N 30°04' W 093°22'1 2.9
2018-Jun-13 14:00N 30°04' W 093°24'0 0.1
2018-Jun-13 13:30N 30°04' W 093°24'0 0.0
2018-Jun-13 13:00N 30°04' W 093°24'0 0.0
2018-Jun-13 12:30N 30°04' W 093°24'0 0.0
2018-Jun-13 12:00N 30°04' W 093°24'1 2.3
2018-Jun-13 11:30N 30°04' W 093°25'0 0.4
2018-Jun-13 11:00N 30°04' W 093°25'0 0.1
2018-Jun-13 10:30N 30°04' W 093°25'0 0.0
2018-Jun-13 10:00N 30°04' W 093°25'0 0.0
2018-Jun-13 09:30N 30°04' W 093°25'0 0.0
2018-Jun-13 09:00N 30°04' W 093°25'0 0.0
2018-Jun-13 08:30N 30°04' W 093°25'0 0.0
2018-Jun-13 08:00N 30°04' W 093°25'0 0.1
2018-Jun-13 07:30N 30°04' W 093°26'0 0.2
2018-Jun-13 07:00N 30°04' W 093°26'1 1.8
2018-Jun-13 06:30N 30°04' W 093°27'2 3.2
2018-Jun-13 06:00N 30°04' W 093°28'1 2.9
2018-Jun-13 05:30N 30°04' W 093°30'1 2.8
2018-Jun-13 05:00N 30°04' W 093°32'2 3.9
2018-Jun-13 04:28N 30°04' W 093°34'2 3.8
2018-Jun-13 03:56N 30°04' W 093°37'2 3.8
2018-Jun-13 03:30N 30°04' W 093°38'2 3.9
2018-Jun-13 02:56N 30°04' W 093°41'2 3.6
2018-Jun-13 02:28N 30°03' W 093°43'2 3.8
2018-Jun-13 02:00N 30°02' W 093°44'2 3.8
2018-Jun-13 01:30N 30°01' W 093°46'2 4.1
2018-Jun-13 01:00N 29°59' W 093°48'2 4.8
2018-Jun-13 00:30N 29°59' W 093°50'2 3.8
2018-Jun-13 00:00N 29°59' W 093°52'3 5.3
2018-Jun-12 23:30N 29°59' W 093°55'0 0.6
2018-Jun-12 23:00N 29°60' W 093°55'1 1.1
2018-Jun-12 22:30N 29°60' W 093°55'0 0.1
2018-Jun-12 22:00N 29°60' W 093°55'0 0.0
2018-Jun-12 21:30N 29°60' W 093°55'0 0.0
2018-Jun-12 21:00N 29°60' W 093°55'0 0.0
2018-Jun-12 20:30N 29°60' W 093°55'1 2.9
2018-Jun-12 20:00N 29°59' W 093°53'2 4.3
2018-Jun-12 19:30N 29°58' W 093°51'1 1.6
2018-Jun-12 19:00N 29°58' W 093°51'3 6.4
2018-Jun-12 18:30N 29°55' W 093°53'3 6.4
2018-Jun-12 18:00N 29°52' W 093°56'3 6.3
2018-Jun-12 17:30N 29°50' W 093°57'0 0.5
2018-Jun-12 17:00N 29°50' W 093°58'0 0.0
2018-Jun-12 16:30N 29°50' W 093°58'0 0.9
2018-Jun-12 16:00N 29°50' W 093°57'3 5.9
2018-Jun-12 15:30N 29°53' W 093°56'3 6.1
2018-Jun-12 15:00N 29°55' W 093°53'3 5.9
2018-Jun-12 14:30N 29°57' W 093°52'2 4.2
2018-Jun-12 13:59N 29°59' W 093°53'2 3.1
2018-Jun-12 13:29N 29°60' W 093°55'0 0.0
2018-Jun-12 13:00N 29°60' W 093°55'1 2.9
2018-Jun-12 12:30N 29°60' W 093°57'0 0.0
2018-Jun-12 12:00N 29°60' W 093°57'2 4.5
2018-Jun-12 11:30N 29°59' W 093°54'3 5.7
2018-Jun-12 11:00N 29°58' W 093°51'0 0.1
2018-Jun-12 10:30N 29°58' W 093°51'2 3.8
2018-Jun-12 10:00N 29°59' W 093°53'2 3.5
2018-Jun-12 09:28N 29°60' W 093°55'0 0.0
2018-Jun-12 08:58N 29°60' W 093°55'0 0.0
2018-Jun-12 08:28N 29°60' W 093°55'0 0.0
2018-Jun-12 07:58N 29°60' W 093°55'0 0.0
2018-Jun-12 07:28N 29°60' W 093°55'0 0.0
2018-Jun-12 06:58N 29°60' W 093°55'0 0.0
2018-Jun-12 06:28N 29°60' W 093°55'0 0.0
2018-Jun-12 05:58N 29°60' W 093°55'0 0.0
2018-Jun-12 05:28N 29°60' W 093°55'0 0.0
2018-Jun-12 04:58N 29°60' W 093°55'0 0.0
2018-Jun-12 04:28N 29°60' W 093°55'0 0.0
2018-Jun-12 03:58N 29°60' W 093°55'0 0.0
2018-Jun-12 03:28N 29°60' W 093°55'0 0.6
2018-Jun-12 03:00N 29°60' W 093°55'1 2.8
2018-Jun-12 02:29N 29°60' W 093°57'0 0.0
2018-Jun-12 01:59N 29°60' W 093°57'0 0.0
2018-Jun-12 01:29N 29°60' W 093°57'0 0.0
2018-Jun-12 00:59N 29°60' W 093°57'0 0.0
2018-Jun-12 00:29N 29°60' W 093°57'0 0.0
2018-Jun-11 23:59N 29°60' W 093°57'0 0.0
2018-Jun-11 23:29N 29°60' W 093°57'0 0.0
2018-Jun-11 22:59N 29°60' W 093°57'0 0.0
2018-Jun-11 22:29N 29°60' W 093°57'0 0.0
2018-Jun-11 21:59N 29°60' W 093°57'0 0.0
2018-Jun-11 21:29N 29°60' W 093°57'0 0.0
2018-Jun-11 20:59N 29°60' W 093°57'0 0.0
2018-Jun-11 20:26N 29°60' W 093°57'0 0.0
2018-Jun-11 19:59N 29°60' W 093°57'0 0.0
2018-Jun-11 19:29N 29°60' W 093°57'0 0.0
2018-Jun-11 18:59N 29°60' W 093°57'0 0.0
2018-Jun-11 18:29N 29°60' W 093°57'1 3.0
2018-Jun-11 18:00N 29°59' W 093°55'3 6.7
2018-Jun-11 17:30N 29°58' W 093°51'1 1.1
2018-Jun-11 17:00N 29°58' W 093°51'0 0.0
2018-Jun-11 16:30N 29°58' W 093°51'0 0.0
2018-Jun-11 16:00N 29°58' W 093°51'0 0.0
2018-Jun-11 15:30N 29°58' W 093°51'3 5.1
2018-Jun-11 15:00N 29°59' W 093°54'1 2.9
2018-Jun-11 14:30N 29°60' W 093°55'3 5.6
2018-Jun-11 14:00N 30°01' W 093°58'3 5.9
2018-Jun-11 13:30N 30°01' W 094°02'1 2.5
2018-Jun-11 13:00N 30°01' W 094°00'3 5.8
2018-Jun-11 12:30N 29°60' W 093°57'3 5.9
2018-Jun-11 12:00N 29°59' W 093°54'3 5.1
2018-Jun-11 11:29N 29°58' W 093°51'0 0.0
2018-Jun-11 11:00N 29°58' W 093°51'2 4.5
2018-Jun-11 10:30N 29°59' W 093°53'1 2.8
2018-Jun-11 09:59N 29°60' W 093°55'0 0.0
2018-Jun-11 09:29N 29°60' W 093°55'0 0.0
2018-Jun-11 08:59N 29°60' W 093°55'0 0.0
2018-Jun-11 08:29N 29°60' W 093°55'0 0.0
2018-Jun-11 07:59N 29°60' W 093°55'0 0.0
2018-Jun-11 07:29N 29°60' W 093°55'0 0.0
2018-Jun-11 06:59N 29°60' W 093°55'0 0.0
2018-Jun-11 06:29N 29°60' W 093°55'0 0.0
2018-Jun-11 05:59N 29°60' W 093°55'0 0.0
2018-Jun-11 05:29N 29°60' W 093°55'0 0.0
2018-Jun-11 04:59N 29°60' W 093°55'0 0.0
2018-Jun-11 04:29N 29°60' W 093°55'0 0.0
2018-Jun-11 03:59N 29°60' W 093°55'0 0.0
2018-Jun-11 03:29N 29°60' W 093°55'0 0.0
2018-Jun-11 02:59N 29°60' W 093°55'0 0.0
2018-Jun-11 02:29N 29°60' W 093°55'0 0.0
2018-Jun-11 01:59N 29°60' W 093°55'0 0.0
2018-Jun-11 01:29N 29°60' W 093°55'0 0.0
2018-Jun-11 00:59N 29°60' W 093°55'0 0.0
2018-Jun-11 00:29N 29°60' W 093°55'0 0.0
2018-Jun-10 23:59N 29°60' W 093°55'0 0.0
2018-Jun-10 23:29N 29°60' W 093°55'0 0.0
2018-Jun-10 22:59N 29°60' W 093°55'0 0.0
2018-Jun-10 22:29N 29°60' W 093°55'0 0.0
2018-Jun-10 21:59N 29°60' W 093°55'0 0.0
2018-Jun-10 21:29N 29°60' W 093°55'0 0.0
2018-Jun-10 20:59N 29°60' W 093°55'0 0.0
2018-Jun-10 20:29N 29°60' W 093°55'0 0.0
2018-Jun-10 19:59N 29°60' W 093°55'0 0.0
2018-Jun-10 19:29N 29°60' W 093°55'0 0.4
2018-Jun-10 19:00N 29°60' W 093°55'0 1.0
2018-Jun-10 18:30N 29°59' W 093°55'2 4.1
2018-Jun-10 18:00N 30°00' W 093°57'2 3.4
2018-Jun-10 17:30N 30°01' W 093°59'2 4.4
2018-Jun-10 17:00N 30°01' W 094°02'2 3.9
2018-Jun-10 16:30N 30°03' W 094°02'2 3.4
2018-Jun-10 16:00N 30°04' W 094°03'1 1.5
2018-Jun-10 15:30N 30°05' W 094°04'0 0.0
2018-Jun-10 15:00N 30°05' W 094°04'0 0.0
2018-Jun-10 14:00N 30°05' W 094°04'0 0.0
2018-Jun-10 13:29N 30°05' W 094°04'0 0.0
2018-Jun-10 13:00N 30°05' W 094°04'0 0.0
2018-Jun-10 12:30N 30°05' W 094°04'0 0.1
2018-Jun-10 12:00N 30°05' W 094°04'0 0.0
2018-Jun-10 11:30N 30°05' W 094°04'0 0.0
2018-Jun-10 11:00N 30°05' W 094°04'0 0.0
2018-Jun-10 10:30N 30°05' W 094°04'0 0.0
2018-Jun-10 10:00N 30°05' W 094°04'0 0.0
2018-Jun-10 09:30N 30°05' W 094°04'0 0.0
2018-Jun-10 09:00N 30°05' W 094°04'0 0.0
2018-Jun-10 08:30N 30°05' W 094°04'0 0.0
2018-Jun-10 08:00N 30°05' W 094°04'0 0.0
2018-Jun-10 07:30N 30°05' W 094°04'0 0.0
2018-Jun-10 07:00N 30°05' W 094°04'0 0.0
2018-Jun-10 06:30N 30°05' W 094°04'0 0.0
2018-Jun-10 06:00N 30°05' W 094°04'0 0.0
2018-Jun-10 05:27N 30°05' W 094°04'0 0.0
2018-Jun-10 05:00N 30°05' W 094°04'0 0.0
2018-Jun-10 04:30N 30°05' W 094°04'0 0.0
2018-Jun-10 04:00N 30°05' W 094°04'0 0.0
2018-Jun-10 03:30N 30°05' W 094°04'0 0.0
2018-Jun-10 03:00N 30°05' W 094°04'0 0.0
2018-Jun-10 02:27N 30°05' W 094°04'0 0.0
2018-Jun-10 02:00N 30°05' W 094°04'0 0.0
2018-Jun-10 01:30N 30°05' W 094°04'0 0.0
2018-Jun-10 01:00N 30°05' W 094°04'0 0.0
2018-Jun-10 00:30N 30°05' W 094°04'0 0.0
2018-Jun-10 00:00N 30°05' W 094°04'0 0.0
2018-Jun-09 23:30N 30°05' W 094°04'0 0.0
2018-Jun-09 23:00N 30°05' W 094°04'0 0.0
2018-Jun-09 22:30N 30°05' W 094°04'0 0.0
2018-Jun-09 22:00N 30°05' W 094°04'0 0.0
2018-Jun-09 21:30N 30°05' W 094°04'0 0.0
2018-Jun-09 21:00N 30°05' W 094°04'0 0.0
2018-Jun-09 20:30N 30°05' W 094°04'0 0.0
2018-Jun-09 20:00N 30°05' W 094°04'0 0.0
2018-Jun-09 19:30N 30°05' W 094°04'0 0.0
2018-Jun-09 19:00N 30°05' W 094°04'0 0.0
2018-Jun-09 18:30N 30°05' W 094°04'0 0.0
2018-Jun-09 18:00N 30°05' W 094°04'0 0.0
2018-Jun-09 17:30N 30°05' W 094°04'0 0.0
2018-Jun-09 17:00N 30°05' W 094°04'0 0.0
2018-Jun-09 16:27N 30°05' W 094°04'0 0.0
2018-Jun-09 16:00N 30°05' W 094°04'0 0.0
2018-Jun-09 15:00N 30°05' W 094°04'0 0.0
2018-Jun-09 14:30N 30°05' W 094°04'0 0.0
2018-Jun-09 14:00N 30°05' W 094°04'0 0.0
2018-Jun-09 13:30N 30°05' W 094°04'0 0.0
2018-Jun-09 13:00N 30°05' W 094°04'0 0.0
2018-Jun-09 12:30N 30°05' W 094°04'0 0.0
2018-Jun-09 12:00N 30°05' W 094°04'0 0.0
2018-Jun-09 11:30N 30°05' W 094°04'0 0.0
2018-Jun-09 11:00N 30°05' W 094°04'0 0.0
2018-Jun-09 10:27N 30°05' W 094°04'0 0.0
2018-Jun-09 10:00N 30°05' W 094°04'0 0.0
2018-Jun-09 09:30N 30°05' W 094°04'0 0.0
2018-Jun-09 09:00N 30°05' W 094°04'0 0.0
2018-Jun-09 08:30N 30°05' W 094°04'0 0.0
2018-Jun-09 08:00N 30°05' W 094°04'0 0.0
2018-Jun-09 07:30N 30°05' W 094°04'0 0.0
2018-Jun-09 07:00N 30°05' W 094°04'0 0.0
2018-Jun-09 06:30N 30°05' W 094°04'0 0.0
2018-Jun-09 06:00N 30°05' W 094°04'0 0.0
2018-Jun-09 05:27N 30°05' W 094°04'0 0.0
2018-Jun-09 04:54N 30°05' W 094°04'0 0.0
2018-Jun-09 04:30N 30°05' W 094°04'0 0.0
2018-Jun-09 04:00N 30°05' W 094°04'0 0.0
2018-Jun-09 03:27N 30°05' W 094°04'0 0.0
2018-Jun-09 03:00N 30°05' W 094°04'0 0.0
2018-Jun-09 02:27N 30°05' W 094°04'0 0.0
2018-Jun-09 02:00N 30°05' W 094°04'0 0.0
2018-Jun-09 01:30N 30°05' W 094°04'0 0.1
2018-Jun-09 01:00N 30°05' W 094°04'1 2.3
2018-Jun-09 00:30N 30°04' W 094°03'0 0.3
2018-Jun-09 00:00N 30°04' W 094°03'0 0.1
2018-Jun-08 23:30N 30°04' W 094°03'0 0.0
2018-Jun-08 23:00N 30°04' W 094°03'0 0.0
2018-Jun-08 22:30N 30°04' W 094°03'0 0.0
2018-Jun-08 22:00N 30°04' W 094°03'0 0.0
2018-Jun-08 21:30N 30°04' W 094°03'0 0.0
2018-Jun-08 21:00N 30°04' W 094°03'0 0.0
2018-Jun-08 20:30N 30°04' W 094°03'0 0.0
2018-Jun-08 20:00N 30°04' W 094°03'0 0.0
2018-Jun-08 19:30N 30°04' W 094°03'0 0.1
2018-Jun-08 19:00N 30°04' W 094°03'0 0.0
2018-Jun-08 18:30N 30°04' W 094°03'0 0.0
2018-Jun-08 18:00N 30°04' W 094°03'0 0.0
2018-Jun-08 17:30N 30°04' W 094°03'0 0.0
2018-Jun-08 17:00N 30°04' W 094°03'0 0.0
2018-Jun-08 16:30N 30°04' W 094°03'2 3.4
2018-Jun-08 16:00N 30°03' W 094°02'2 4.7
2018-Jun-08 15:30N 30°01' W 094°00'3 5.3
2018-Jun-08 15:00N 30°00' W 093°57'1 2.2
2018-Jun-08 14:30N 29°60' W 093°57'1 1.5
2018-Jun-08 14:00N 29°60' W 093°56'1 1.1
2018-Jun-08 13:30N 29°60' W 093°55'0 0.9
2018-Jun-08 13:00N 29°59' W 093°55'3 6.0
2018-Jun-08 12:30N 29°59' W 093°52'1 2.0
2018-Jun-08 12:00N 29°58' W 093°51'2 4.4
2018-Jun-08 11:30N 29°59' W 093°53'3 6.4
2018-Jun-08 11:00N 29°60' W 093°57'3 5.3
2018-Jun-08 10:30N 30°01' W 093°60'2 3.5
2018-Jun-08 10:00N 30°01' W 094°02'0 0.0
2018-Jun-08 09:29N 30°01' W 094°02'0 0.0
2018-Jun-08 08:59N 30°01' W 094°02'0 0.0
2018-Jun-08 08:29N 30°01' W 094°02'0 0.0
2018-Jun-08 07:59N 30°01' W 094°02'0 0.0
2018-Jun-08 07:29N 30°01' W 094°02'0 0.0
2018-Jun-08 06:59N 30°01' W 094°02'0 0.0
2018-Jun-08 06:29N 30°01' W 094°02'0 0.0
2018-Jun-08 05:59N 30°01' W 094°02'0 0.0
2018-Jun-08 05:29N 30°01' W 094°02'0 0.0
2018-Jun-08 04:59N 30°01' W 094°02'0 0.0
2018-Jun-08 04:29N 30°01' W 094°02'0 0.0
2018-Jun-08 03:59N 30°01' W 094°02'0 0.0
2018-Jun-08 03:29N 30°01' W 094°02'0 0.0
2018-Jun-08 02:59N 30°01' W 094°02'0 0.0
2018-Jun-08 02:29N 30°01' W 094°02'0 0.0
2018-Jun-08 02:00N 30°01' W 094°02'0 0.0
2018-Jun-08 01:31N 30°01' W 094°02'3 5.5
2018-Jun-08 01:01N 30°04' W 094°03'2 3.1
2018-Jun-08 00:30N 30°02' W 094°02'3 5.2
2018-Jun-08 00:01N 30°01' W 093°60'2 4.8
2018-Jun-07 23:31N 29°60' W 093°57'0 0.4
2018-Jun-07 23:01N 29°60' W 093°57'0 0.0
2018-Jun-07 22:31N 29°60' W 093°57'0 0.0
2018-Jun-07 22:01N 29°60' W 093°57'0 0.0
2018-Jun-07 21:30N 29°60' W 093°57'2 3.0
2018-Jun-07 21:01N 30°01' W 093°58'3 6.6
2018-Jun-07 20:31N 30°02' W 094°02'3 5.4
2018-Jun-07 19:59N 30°04' W 094°03'0 0.0
2018-Jun-07 19:29N 30°04' W 094°03'0 0.0
2018-Jun-07 18:59N 30°04' W 094°03'1 1.5
2018-Jun-07 18:28N 30°04' W 094°03'0 0.0
2018-Jun-07 17:58N 30°04' W 094°03'0 0.0
2018-Jun-07 17:28N 30°04' W 094°03'0 0.0
2018-Jun-07 16:58N 30°04' W 094°03'0 0.0
2018-Jun-07 16:28N 30°04' W 094°03'0 0.0
2018-Jun-07 15:58N 30°04' W 094°03'0 0.0
2018-Jun-07 15:29N 30°04' W 094°03'1 1.4
2018-Jun-07 14:57N 30°04' W 094°03'0 0.0
2018-Jun-07 14:30N 30°04' W 094°03'0 0.0
2018-Jun-07 14:00N 30°04' W 094°03'0 0.0
2018-Jun-07 13:30N 30°04' W 094°03'0 0.4
2018-Jun-07 13:00N 30°04' W 094°03'0 0.8
2018-Jun-07 12:30N 30°04' W 094°03'1 1.1
2018-Jun-07 12:00N 30°04' W 094°03'0 0.0
2018-Jun-07 11:30N 30°04' W 094°03'0 0.0
2018-Jun-07 11:00N 30°04' W 094°03'0 0.0
2018-Jun-07 10:30N 30°04' W 094°03'0 0.0
2018-Jun-07 10:00N 30°04' W 094°03'0 0.0
2018-Jun-07 09:30N 30°04' W 094°03'0 0.0
2018-Jun-07 09:00N 30°04' W 094°03'0 0.0
2018-Jun-07 08:30N 30°04' W 094°03'0 0.0
2018-Jun-07 08:00N 30°04' W 094°03'0 0.0
2018-Jun-07 07:30N 30°04' W 094°03'0 0.0
2018-Jun-07 07:00N 30°04' W 094°03'0 0.0
2018-Jun-07 06:30N 30°04' W 094°03'0 0.0
2018-Jun-07 06:00N 30°04' W 094°03'0 0.0
2018-Jun-07 05:30N 30°04' W 094°03'0 0.0
2018-Jun-07 05:00N 30°04' W 094°03'0 0.0
2018-Jun-07 04:30N 30°04' W 094°03'0 0.0
2018-Jun-07 04:00N 30°04' W 094°03'0 0.0
2018-Jun-07 03:30N 30°04' W 094°03'0 0.0
2018-Jun-07 03:00N 30°04' W 094°03'0 0.0
2018-Jun-07 02:30N 30°04' W 094°03'0 0.0
2018-Jun-07 02:01N 30°04' W 094°03'0 0.0
2018-Jun-07 01:30N 30°04' W 094°03'0 0.0
2018-Jun-07 01:00N 30°04' W 094°03'0 0.0
2018-Jun-07 00:30N 30°04' W 094°03'0 0.0
2018-Jun-06 23:59N 30°04' W 094°03'2 4.0
2018-Jun-06 23:30N 30°03' W 094°02'3 5.1
2018-Jun-06 23:00N 30°01' W 093°60'2 5.0
2018-Jun-06 22:30N 29°60' W 093°57'3 6.3
2018-Jun-06 22:00N 29°59' W 093°54'1 1.3
2018-Jun-06 21:28N 29°59' W 093°53'0 0.0
2018-Jun-06 20:58N 29°59' W 093°53'0 0.0
2018-Jun-06 20:28N 29°59' W 093°53'0 0.0
2018-Jun-06 19:58N 29°59' W 093°53'0 0.0
2018-Jun-06 19:28N 29°59' W 093°53'0 0.0
2018-Jun-06 18:58N 29°59' W 093°53'0 0.0
2018-Jun-06 18:28N 29°59' W 093°53'0 0.0
2018-Jun-06 17:58N 29°59' W 093°53'0 0.0
2018-Jun-06 17:28N 29°59' W 093°53'0 0.0
2018-Jun-06 16:58N 29°59' W 093°53'0 0.0
2018-Jun-06 16:28N 29°59' W 093°53'0 0.0
2018-Jun-06 15:58N 29°59' W 093°53'0 0.0
2018-Jun-06 15:28N 29°59' W 093°53'0 0.0
2018-Jun-06 14:58N 29°59' W 093°53'0 0.0
2018-Jun-06 14:28N 29°59' W 093°53'0 0.0
2018-Jun-06 13:58N 29°59' W 093°53'0 0.0
2018-Jun-06 13:28N 29°59' W 093°53'0 0.0
2018-Jun-06 12:58N 29°59' W 093°53'0 0.0
2018-Jun-06 12:28N 29°59' W 093°53'0 0.0
2018-Jun-06 11:58N 29°59' W 093°53'0 0.0
2018-Jun-06 11:28N 29°59' W 093°53'0 0.0
2018-Jun-06 10:58N 29°59' W 093°53'0 0.0
2018-Jun-06 10:28N 29°59' W 093°53'0 0.0
2018-Jun-06 09:58N 29°59' W 093°53'0 0.0
2018-Jun-06 09:28N 29°59' W 093°53'0 0.0
2018-Jun-06 08:55N 29°59' W 093°53'0 0.0
2018-Jun-06 08:28N 29°59' W 093°53'0 0.0
2018-Jun-06 07:58N 29°59' W 093°53'0 0.0
2018-Jun-06 07:28N 29°59' W 093°53'0 0.0
2018-Jun-06 06:58N 29°59' W 093°53'0 0.0
2018-Jun-06 06:28N 29°59' W 093°53'0 0.0
2018-Jun-06 05:58N 29°59' W 093°53'0 0.0
2018-Jun-06 05:28N 29°59' W 093°53'0 0.0
2018-Jun-06 04:58N 29°59' W 093°53'0 0.0
2018-Jun-06 04:28N 29°59' W 093°53'0 0.0
2018-Jun-06 03:55N 29°59' W 093°53'0 0.0
2018-Jun-06 03:28N 29°59' W 093°53'0 0.0
2018-Jun-06 02:58N 29°59' W 093°53'0 0.0
2018-Jun-06 02:28N 29°59' W 093°53'0 0.0
2018-Jun-06 01:58N 29°59' W 093°53'0 0.0
2018-Jun-06 01:28N 29°59' W 093°53'0 0.0
2018-Jun-06 00:58N 29°59' W 093°53'0 0.0
2018-Jun-06 00:28N 29°59' W 093°53'0 0.0
2018-Jun-05 23:58N 29°59' W 093°53'0 0.0
2018-Jun-05 23:28N 29°59' W 093°53'0 0.0
2018-Jun-05 22:58N 29°59' W 093°53'0 0.0
2018-Jun-05 22:28N 29°59' W 093°53'0 0.0
2018-Jun-05 21:58N 29°59' W 093°53'0 0.0
2018-Jun-05 21:28N 29°59' W 093°53'0 0.0
2018-Jun-05 20:58N 29°59' W 093°53'0 0.0
2018-Jun-05 20:28N 29°59' W 093°53'0 0.0
2018-Jun-05 19:58N 29°59' W 093°53'0 0.0
2018-Jun-05 19:28N 29°59' W 093°53'0 0.0
2018-Jun-05 18:58N 29°59' W 093°53'0 0.0
2018-Jun-05 18:28N 29°59' W 093°53'0 0.0
2018-Jun-05 17:58N 29°59' W 093°53'0 0.0
2018-Jun-05 17:28N 29°59' W 093°53'0 0.0
2018-Jun-05 16:58N 29°59' W 093°53'0 0.0
2018-Jun-05 16:28N 29°59' W 093°53'0 0.0
2018-Jun-05 15:58N 29°59' W 093°53'0 0.0
2018-Jun-05 15:28N 29°59' W 093°53'1 1.5
2018-Jun-05 15:00N 29°59' W 093°54'1 2.7
2018-Jun-05 14:30N 29°60' W 093°55'1 2.7
2018-Jun-05 14:00N 29°59' W 093°53'2 3.8
2018-Jun-05 13:30N 29°58' W 093°51'0 0.2
2018-Jun-05 13:00N 29°58' W 093°51'3 5.4
2018-Jun-05 12:30N 29°59' W 093°54'1 1.3
2018-Jun-05 11:59N 29°60' W 093°55'0 0.0
2018-Jun-05 11:29N 29°60' W 093°55'0 0.0
2018-Jun-05 10:59N 29°60' W 093°55'0 0.0
2018-Jun-05 10:29N 29°60' W 093°55'0 0.0
2018-Jun-05 09:59N 29°60' W 093°55'0 0.0
2018-Jun-05 09:29N 29°60' W 093°55'  
Track history (hours):
 
Tides and Currents Weather Stations Pressure Air Temp Water Temp Dewpoint Dewpoint Depression Visibility Wind Speed Wind Dir Waves Ship Positions

Lucy Hannah

Owner: D&S Marine Service,LLC., Houma, LA. More information available from US FCC via Universal Licensing System and Coast Guard Vessel Documentation Center.

Last reported at 2018-Jun-15 09:01 UTC. Time now 2018-Jun-24 10:47 UTC.
Position N 29°51' W 091°54'.
Warning: this ship's position is 9 days out of date.

Length 201 m; draft 3 m.

Type: . MMSI: 367075110.

Date/timePositionNaut miles runAvg speedWind from/ knotsBaromVisibWave heightAir tempDewpointWater temp
2018-Jun-15 09:01N 29°51' W 091°54'0 4.9
2018-Jun-15 08:59N 29°51' W 091°54'2 4.6
2018-Jun-15 08:30N 29°51' W 091°57'2 4.4
2018-Jun-15 08:00N 29°50' W 091°59'2 4.8
2018-Jun-15 07:30N 29°49' W 092°02'2 4.5
2018-Jun-15 07:00N 29°48' W 092°04'2 4.5
2018-Jun-15 06:30N 29°48' W 092°07'2 4.4
2018-Jun-15 06:00N 29°47' W 092°09'2 3.8
2018-Jun-15 05:30N 29°47' W 092°11'1 2.2
2018-Jun-15 05:00N 29°47' W 092°12'2 3.2
2018-Jun-15 04:30N 29°48' W 092°14'1 1.1
2018-Jun-15 04:00N 29°48' W 092°15'0 0.0
2018-Jun-15 03:30N 29°48' W 092°15'0 0.0
2018-Jun-15 03:00N 29°48' W 092°15'1 2.0
2018-Jun-15 02:30N 29°48' W 092°16'2 4.0
2018-Jun-15 02:00N 29°50' W 092°18'2 3.7
2018-Jun-15 01:30N 29°50' W 092°20'2 3.9
2018-Jun-15 01:00N 29°51' W 092°22'3 3.8
2018-Jun-15 00:18N 29°53' W 092°24'1 4.1
2018-Jun-15 00:00N 29°53' W 092°25'33 3.9
2018-Jun-14 15:40N 29°56' W 093°03'1 3.5
2018-Jun-14 15:23N 29°56' W 093°04'2 3.9
2018-Jun-14 14:53N 29°56' W 093°06'2 4.2
2018-Jun-14 14:30N 29°56' W 093°08'2 3.9
2018-Jun-14 14:00N 29°57' W 093°10'2 3.4
2018-Jun-14 13:30N 29°58' W 093°11'1 2.6
2018-Jun-14 13:00N 29°59' W 093°12'1 3.0
2018-Jun-14 12:30N 30°00' W 093°14'1 2.2
2018-Jun-14 12:00N 30°01' W 093°14'2 3.1
2018-Jun-14 11:30N 30°02' W 093°15'1 2.8
2018-Jun-14 11:00N 30°03' W 093°16'1 2.6
2018-Jun-14 10:30N 30°05' W 093°17'1 2.4
2018-Jun-14 10:00N 30°05' W 093°18'0 0.4
2018-Jun-14 09:30N 30°05' W 093°18'1 1.8
2018-Jun-14 09:00N 30°06' W 093°19'0 0.4
2018-Jun-14 08:30N 30°06' W 093°19'0 0.1
2018-Jun-14 08:00N 30°06' W 093°19'0 0.0
2018-Jun-14 07:30N 30°06' W 093°19'0 0.0
2018-Jun-14 07:00N 30°06' W 093°19'0 0.0
2018-Jun-14 06:30N 30°06' W 093°19'0 0.0
2018-Jun-14 06:00N 30°06' W 093°19'0 0.0
2018-Jun-14 05:30N 30°06' W 093°19'0 0.1
2018-Jun-14 05:00N 30°06' W 093°19'0 0.0
2018-Jun-14 04:30N 30°06' W 093°19'0 0.0
2018-Jun-14 04:00N 30°06' W 093°19'0 0.0
2018-Jun-14 03:30N 30°06' W 093°19'0 0.1
2018-Jun-14 03:00N 30°06' W 093°19'0 0.1
2018-Jun-14 02:30N 30°06' W 093°19'0 0.0
2018-Jun-14 02:00N 30°06' W 093°19'0 0.0
2018-Jun-14 01:30N 30°06' W 093°19'0 0.0
2018-Jun-14 01:00N 30°06' W 093°19'0 0.0
2018-Jun-14 00:30N 30°06' W 093°19'0 0.0
2018-Jun-14 00:00N 30°06' W 093°19'0 0.0
2018-Jun-13 23:30N 30°06' W 093°19'0 0.0
2018-Jun-13 23:00N 30°06' W 093°19'0 0.1
2018-Jun-13 22:30N 30°06' W 093°19'0 0.0
2018-Jun-13 22:00N 30°06' W 093°19'0 0.0
2018-Jun-13 21:30N 30°06' W 093°19'0 0.0
2018-Jun-13 21:00N 30°06' W 093°19'0 0.0
2018-Jun-13 20:30N 30°06' W 093°19'0 0.1
2018-Jun-13 20:00N 30°06' W 093°19'0 0.0
2018-Jun-13 19:30N 30°06' W 093°19'0 0.0
2018-Jun-13 19:00N 30°06' W 093°19'0 0.0
2018-Jun-13 18:30N 30°06' W 093°19'0 0.0
2018-Jun-13 18:00N 30°06' W 093°19'0 0.0
2018-Jun-13 17:30N 30°06' W 093°19'0 0.2
2018-Jun-13 17:00N 30°06' W 093°19'0 0.0
2018-Jun-13 16:30N 30°06' W 093°19'0 0.2
2018-Jun-13 16:00N 30°06' W 093°19'2 3.2
2018-Jun-13 15:30N 30°05' W 093°20'1 2.6
2018-Jun-13 15:00N 30°04' W 093°21'1 2.4
2018-Jun-13 14:30N 30°04' W 093°22'1 2.9
2018-Jun-13 14:00N 30°04' W 093°24'0 0.1
2018-Jun-13 13:30N 30°04' W 093°24'0 0.0
2018-Jun-13 13:00N 30°04' W 093°24'0 0.0
2018-Jun-13 12:30N 30°04' W 093°24'0 0.0
2018-Jun-13 12:00N 30°04' W 093°24'1 2.3
2018-Jun-13 11:30N 30°04' W 093°25'0 0.4
2018-Jun-13 11:00N 30°04' W 093°25'0 0.1
2018-Jun-13 10:30N 30°04' W 093°25'0 0.0
2018-Jun-13 10:00N 30°04' W 093°25'0 0.0
2018-Jun-13 09:30N 30°04' W 093°25'0 0.0
2018-Jun-13 09:00N 30°04' W 093°25'0 0.0
2018-Jun-13 08:30N 30°04' W 093°25'0 0.0
2018-Jun-13 08:00N 30°04' W 093°25'0 0.1
2018-Jun-13 07:30N 30°04' W 093°26'0 0.2
2018-Jun-13 07:00N 30°04' W 093°26'1 1.8
2018-Jun-13 06:30N 30°04' W 093°27'2 3.2
2018-Jun-13 06:00N 30°04' W 093°28'1 2.9
2018-Jun-13 05:30N 30°04' W 093°30'1 2.8
2018-Jun-13 05:00N 30°04' W 093°32'2 3.9
2018-Jun-13 04:28N 30°04' W 093°34'2 3.8
2018-Jun-13 03:56N 30°04' W 093°37'2 3.8
2018-Jun-13 03:30N 30°04' W 093°38'2 3.9
2018-Jun-13 02:56N 30°04' W 093°41'2 3.6
2018-Jun-13 02:28N 30°03' W 093°43'2 3.8
2018-Jun-13 02:00N 30°02' W 093°44'2 3.8
2018-Jun-13 01:30N 30°01' W 093°46'2 4.1
2018-Jun-13 01:00N 29°59' W 093°48'2 4.8
2018-Jun-13 00:30N 29°59' W 093°50'2 3.8
2018-Jun-13 00:00N 29°59' W 093°52'3 5.3
2018-Jun-12 23:30N 29°59' W 093°55'0 0.6
2018-Jun-12 23:00N 29°60' W 093°55'1 1.1
2018-Jun-12 22:30N 29°60' W 093°55'0 0.1
2018-Jun-12 22:00N 29°60' W 093°55'0 0.0
2018-Jun-12 21:30N 29°60' W 093°55'0 0.0
2018-Jun-12 21:00N 29°60' W 093°55'0 0.0
2018-Jun-12 20:30N 29°60' W 093°55'1 2.9
2018-Jun-12 20:00N 29°59' W 093°53'2 4.3
2018-Jun-12 19:30N 29°58' W 093°51'1 1.6
2018-Jun-12 19:00N 29°58' W 093°51'3 6.4
2018-Jun-12 18:30N 29°55' W 093°53'3 6.4
2018-Jun-12 18:00N 29°52' W 093°56'3 6.3
2018-Jun-12 17:30N 29°50' W 093°57'0 0.5
2018-Jun-12 17:00N 29°50' W 093°58'0 0.0
2018-Jun-12 16:30N 29°50' W 093°58'0 0.9
2018-Jun-12 16:00N 29°50' W 093°57'3 5.9
2018-Jun-12 15:30N 29°53' W 093°56'3 6.1
2018-Jun-12 15:00N 29°55' W 093°53'3 5.9
2018-Jun-12 14:30N 29°57' W 093°52'2 4.2
2018-Jun-12 13:59N 29°59' W 093°53'2 3.1
2018-Jun-12 13:29N 29°60' W 093°55'0 0.0
2018-Jun-12 13:00N 29°60' W 093°55'1 2.9
2018-Jun-12 12:30N 29°60' W 093°57'0 0.0
2018-Jun-12 12:00N 29°60' W 093°57'2 4.5
2018-Jun-12 11:30N 29°59' W 093°54'3 5.7
2018-Jun-12 11:00N 29°58' W 093°51'0 0.1
2018-Jun-12 10:30N 29°58' W 093°51'2 3.8
2018-Jun-12 10:00N 29°59' W 093°53'2 3.5
2018-Jun-12 09:28N 29°60' W 093°55'0 0.0
2018-Jun-12 08:58N 29°60' W 093°55'0 0.0
2018-Jun-12 08:28N 29°60' W 093°55'0 0.0
2018-Jun-12 07:58N 29°60' W 093°55'0 0.0
2018-Jun-12 07:28N 29°60' W 093°55'0 0.0
2018-Jun-12 06:58N 29°60' W 093°55'0 0.0
2018-Jun-12 06:28N 29°60' W 093°55'0 0.0
2018-Jun-12 05:58N 29°60' W 093°55'0 0.0
2018-Jun-12 05:28N 29°60' W 093°55'0 0.0
2018-Jun-12 04:58N 29°60' W 093°55'0 0.0
2018-Jun-12 04:28N 29°60' W 093°55'0 0.0
2018-Jun-12 03:58N 29°60' W 093°55'0 0.0
2018-Jun-12 03:28N 29°60' W 093°55'0 0.6
2018-Jun-12 03:00N 29°60' W 093°55'1 2.8
2018-Jun-12 02:29N 29°60' W 093°57'0 0.0
2018-Jun-12 01:59N 29°60' W 093°57'0 0.0
2018-Jun-12 01:29N 29°60' W 093°57'0 0.0
2018-Jun-12 00:59N 29°60' W 093°57'0 0.0
2018-Jun-12 00:29N 29°60' W 093°57'0 0.0
2018-Jun-11 23:59N 29°60' W 093°57'0 0.0
2018-Jun-11 23:29N 29°60' W 093°57'0 0.0
2018-Jun-11 22:59N 29°60' W 093°57'0 0.0
2018-Jun-11 22:29N 29°60' W 093°57'0 0.0
2018-Jun-11 21:59N 29°60' W 093°57'0 0.0
2018-Jun-11 21:29N 29°60' W 093°57'0 0.0
2018-Jun-11 20:59N 29°60' W 093°57'0 0.0
2018-Jun-11 20:26N 29°60' W 093°57'0 0.0
2018-Jun-11 19:59N 29°60' W 093°57'0 0.0
2018-Jun-11 19:29N 29°60' W 093°57'0 0.0
2018-Jun-11 18:59N 29°60' W 093°57'0 0.0
2018-Jun-11 18:29N 29°60' W 093°57'1 3.0
2018-Jun-11 18:00N 29°59' W 093°55'3 6.7
2018-Jun-11 17:30N 29°58' W 093°51'1 1.1
2018-Jun-11 17:00N 29°58' W 093°51'0 0.0
2018-Jun-11 16:30N 29°58' W 093°51'0 0.0
2018-Jun-11 16:00N 29°58' W 093°51'0 0.0
2018-Jun-11 15:30N 29°58' W 093°51'3 5.1
2018-Jun-11 15:00N 29°59' W 093°54'1 2.9
2018-Jun-11 14:30N 29°60' W 093°55'3 5.6
2018-Jun-11 14:00N 30°01' W 093°58'3 5.9
2018-Jun-11 13:30N 30°01' W 094°02'1 2.5
2018-Jun-11 13:00N 30°01' W 094°00'3 5.8
2018-Jun-11 12:30N 29°60' W 093°57'3 5.9
2018-Jun-11 12:00N 29°59' W 093°54'3 5.1
2018-Jun-11 11:29N 29°58' W 093°51'0 0.0
2018-Jun-11 11:00N 29°58' W 093°51'2 4.5
2018-Jun-11 10:30N 29°59' W 093°53'1 2.8
2018-Jun-11 09:59N 29°60' W 093°55'0 0.0
2018-Jun-11 09:29N 29°60' W 093°55'0 0.0
2018-Jun-11 08:59N 29°60' W 093°55'0 0.0
2018-Jun-11 08:29N 29°60' W 093°55'0 0.0
2018-Jun-11 07:59N 29°60' W 093°55'0 0.0
2018-Jun-11 07:29N 29°60' W 093°55'0 0.0
2018-Jun-11 06:59N 29°60' W 093°55'0 0.0
2018-Jun-11 06:29N 29°60' W 093°55'0 0.0
2018-Jun-11 05:59N 29°60' W 093°55'0 0.0
2018-Jun-11 05:29N 29°60' W 093°55'0 0.0
2018-Jun-11 04:59N 29°60' W 093°55'0 0.0
2018-Jun-11 04:29N 29°60' W 093°55'0 0.0
2018-Jun-11 03:59N 29°60' W 093°55'0 0.0
2018-Jun-11 03:29N 29°60' W 093°55'0 0.0
2018-Jun-11 02:59N 29°60' W 093°55'0 0.0
2018-Jun-11 02:29N 29°60' W 093°55'0 0.0
2018-Jun-11 01:59N 29°60' W 093°55'0 0.0
2018-Jun-11 01:29N 29°60' W 093°55'0 0.0
2018-Jun-11 00:59N 29°60' W 093°55'0 0.0
2018-Jun-11 00:29N 29°60' W 093°55'0 0.0
2018-Jun-10 23:59N 29°60' W 093°55'0 0.0
2018-Jun-10 23:29N 29°60' W 093°55'0 0.0
2018-Jun-10 22:59N 29°60' W 093°55'0 0.0
2018-Jun-10 22:29N 29°60' W 093°55'0 0.0
2018-Jun-10 21:59N 29°60' W 093°55'0 0.0
2018-Jun-10 21:29N 29°60' W 093°55'0 0.0
2018-Jun-10 20:59N 29°60' W 093°55'0 0.0
2018-Jun-10 20:29N 29°60' W 093°55'0 0.0
2018-Jun-10 19:59N 29°60' W 093°55'0 0.0
2018-Jun-10 19:29N 29°60' W 093°55'0 0.4
2018-Jun-10 19:00N 29°60' W 093°55'0 1.0
2018-Jun-10 18:30N 29°59' W 093°55'2 4.1
2018-Jun-10 18:00N 30°00' W 093°57'2 3.4
2018-Jun-10 17:30N 30°01' W 093°59'2 4.4
2018-Jun-10 17:00N 30°01' W 094°02'2 3.9
2018-Jun-10 16:30N 30°03' W 094°02'2 3.4
2018-Jun-10 16:00N 30°04' W 094°03'1 1.5
2018-Jun-10 15:30N 30°05' W 094°04'0 0.0
2018-Jun-10 15:00N 30°05' W 094°04'0 0.0
2018-Jun-10 14:00N 30°05' W 094°04'0 0.0
2018-Jun-10 13:29N 30°05' W 094°04'0 0.0
2018-Jun-10 13:00N 30°05' W 094°04'0 0.0
2018-Jun-10 12:30N 30°05' W 094°04'0 0.1
2018-Jun-10 12:00N 30°05' W 094°04'0 0.0
2018-Jun-10 11:30N 30°05' W 094°04'0 0.0
2018-Jun-10 11:00N 30°05' W 094°04'0 0.0
2018-Jun-10 10:30N 30°05' W 094°04'0 0.0
2018-Jun-10 10:00N 30°05' W 094°04'0 0.0
2018-Jun-10 09:30N 30°05' W 094°04'0 0.0
2018-Jun-10 09:00N 30°05' W 094°04'0 0.0
2018-Jun-10 08:30N 30°05' W 094°04'0 0.0
2018-Jun-10 08:00N 30°05' W 094°04'0 0.0
2018-Jun-10 07:30N 30°05' W 094°04'0 0.0
2018-Jun-10 07:00N 30°05' W 094°04'0 0.0
2018-Jun-10 06:30N 30°05' W 094°04'0 0.0
2018-Jun-10 06:00N 30°05' W 094°04'0 0.0
2018-Jun-10 05:27N 30°05' W 094°04'0 0.0
2018-Jun-10 05:00N 30°05' W 094°04'0 0.0
2018-Jun-10 04:30N 30°05' W 094°04'0 0.0
2018-Jun-10 04:00N 30°05' W 094°04'0 0.0
2018-Jun-10 03:30N 30°05' W 094°04'0 0.0
2018-Jun-10 03:00N 30°05' W 094°04'0 0.0
2018-Jun-10 02:27N 30°05' W 094°04'0 0.0
2018-Jun-10 02:00N 30°05' W 094°04'0 0.0
2018-Jun-10 01:30N 30°05' W 094°04'0 0.0
2018-Jun-10 01:00N 30°05' W 094°04'0 0.0
2018-Jun-10 00:30N 30°05' W 094°04'0 0.0
2018-Jun-10 00:00N 30°05' W 094°04'0 0.0
2018-Jun-09 23:30N 30°05' W 094°04'0 0.0
2018-Jun-09 23:00N 30°05' W 094°04'0 0.0
2018-Jun-09 22:30N 30°05' W 094°04'0 0.0
2018-Jun-09 22:00N 30°05' W 094°04'0 0.0
2018-Jun-09 21:30N 30°05' W 094°04'0 0.0
2018-Jun-09 21:00N 30°05' W 094°04'0 0.0
2018-Jun-09 20:30N 30°05' W 094°04'0 0.0
2018-Jun-09 20:00N 30°05' W 094°04'0 0.0
2018-Jun-09 19:30N 30°05' W 094°04'0 0.0
2018-Jun-09 19:00N 30°05' W 094°04'0 0.0
2018-Jun-09 18:30N 30°05' W 094°04'0 0.0
2018-Jun-09 18:00N 30°05' W 094°04'0 0.0
2018-Jun-09 17:30N 30°05' W 094°04'0 0.0
2018-Jun-09 17:00N 30°05' W 094°04'0 0.0
2018-Jun-09 16:27N 30°05' W 094°04'0 0.0
2018-Jun-09 16:00N 30°05' W 094°04'0 0.0
2018-Jun-09 15:00N 30°05' W 094°04'0 0.0
2018-Jun-09 14:30N 30°05' W 094°04'0 0.0
2018-Jun-09 14:00N 30°05' W 094°04'0 0.0
2018-Jun-09 13:30N 30°05' W 094°04'0 0.0
2018-Jun-09 13:00N 30°05' W 094°04'0 0.0
2018-Jun-09 12:30N 30°05' W 094°04'0 0.0
2018-Jun-09 12:00N 30°05' W 094°04'0 0.0
2018-Jun-09 11:30N 30°05' W 094°04'0 0.0
2018-Jun-09 11:00N 30°05' W 094°04'0 0.0
2018-Jun-09 10:27N 30°05' W 094°04'0 0.0
2018-Jun-09 10:00N 30°05' W 094°04'0 0.0
2018-Jun-09 09:30N 30°05' W 094°04'0 0.0
2018-Jun-09 09:00N 30°05' W 094°04'0 0.0
2018-Jun-09 08:30N 30°05' W 094°04'0 0.0
2018-Jun-09 08:00N 30°05' W 094°04'0 0.0
2018-Jun-09 07:30N 30°05' W 094°04'0 0.0
2018-Jun-09 07:00N 30°05' W 094°04'0 0.0
2018-Jun-09 06:30N 30°05' W 094°04'0 0.0
2018-Jun-09 06:00N 30°05' W 094°04'0 0.0
2018-Jun-09 05:27N 30°05' W 094°04'0 0.0
2018-Jun-09 04:54N 30°05' W 094°04'0 0.0
2018-Jun-09 04:30N 30°05' W 094°04'0 0.0
2018-Jun-09 04:00N 30°05' W 094°04'0 0.0
2018-Jun-09 03:27N 30°05' W 094°04'0 0.0
2018-Jun-09 03:00N 30°05' W 094°04'0 0.0
2018-Jun-09 02:27N 30°05' W 094°04'0 0.0
2018-Jun-09 02:00N 30°05' W 094°04'0 0.0
2018-Jun-09 01:30N 30°05' W 094°04'0 0.1
2018-Jun-09 01:00N 30°05' W 094°04'1 2.3
2018-Jun-09 00:30N 30°04' W 094°03'0 0.3
2018-Jun-09 00:00N 30°04' W 094°03'0 0.1
2018-Jun-08 23:30N 30°04' W 094°03'0 0.0
2018-Jun-08 23:00N 30°04' W 094°03'0 0.0
2018-Jun-08 22:30N 30°04' W 094°03'0 0.0
2018-Jun-08 22:00N 30°04' W 094°03'0 0.0
2018-Jun-08 21:30N 30°04' W 094°03'0 0.0
2018-Jun-08 21:00N 30°04' W 094°03'0 0.0
2018-Jun-08 20:30N 30°04' W 094°03'0 0.0
2018-Jun-08 20:00N 30°04' W 094°03'0 0.0
2018-Jun-08 19:30N 30°04' W 094°03'0 0.1
2018-Jun-08 19:00N 30°04' W 094°03'0 0.0
2018-Jun-08 18:30N 30°04' W 094°03'0 0.0
2018-Jun-08 18:00N 30°04' W 094°03'0 0.0
2018-Jun-08 17:30N 30°04' W 094°03'0 0.0
2018-Jun-08 17:00N 30°04' W 094°03'0 0.0
2018-Jun-08 16:30N 30°04' W 094°03'2 3.4
2018-Jun-08 16:00N 30°03' W 094°02'2 4.7
2018-Jun-08 15:30N 30°01' W 094°00'3 5.3
2018-Jun-08 15:00N 30°00' W 093°57'1 2.2
2018-Jun-08 14:30N 29°60' W 093°57'1 1.5
2018-Jun-08 14:00N 29°60' W 093°56'1 1.1
2018-Jun-08 13:30N 29°60' W 093°55'0 0.9
2018-Jun-08 13:00N 29°59' W 093°55'3 6.0
2018-Jun-08 12:30N 29°59' W 093°52'1 2.0
2018-Jun-08 12:00N 29°58' W 093°51'2 4.4
2018-Jun-08 11:30N 29°59' W 093°53'3 6.4
2018-Jun-08 11:00N 29°60' W 093°57'3 5.3
2018-Jun-08 10:30N 30°01' W 093°60'2 3.5
2018-Jun-08 10:00N 30°01' W 094°02'0 0.0
2018-Jun-08 09:29N 30°01' W 094°02'0 0.0
2018-Jun-08 08:59N 30°01' W 094°02'0 0.0
2018-Jun-08 08:29N 30°01' W 094°02'0 0.0
2018-Jun-08 07:59N 30°01' W 094°02'0 0.0
2018-Jun-08 07:29N 30°01' W 094°02'0 0.0
2018-Jun-08 06:59N 30°01' W 094°02'0 0.0
2018-Jun-08 06:29N 30°01' W 094°02'0 0.0
2018-Jun-08 05:59N 30°01' W 094°02'0 0.0
2018-Jun-08 05:29N 30°01' W 094°02'0 0.0
2018-Jun-08 04:59N 30°01' W 094°02'0 0.0
2018-Jun-08 04:29N 30°01' W 094°02'0 0.0
2018-Jun-08 03:59N 30°01' W 094°02'0 0.0
2018-Jun-08 03:29N 30°01' W 094°02'0 0.0
2018-Jun-08 02:59N 30°01' W 094°02'0 0.0
2018-Jun-08 02:29N 30°01' W 094°02'0 0.0
2018-Jun-08 02:00N 30°01' W 094°02'0 0.0
2018-Jun-08 01:31N 30°01' W 094°02'3 5.5
2018-Jun-08 01:01N 30°04' W 094°03'2 3.1
2018-Jun-08 00:30N 30°02' W 094°02'3 5.2
2018-Jun-08 00:01N 30°01' W 093°60'2 4.8
2018-Jun-07 23:31N 29°60' W 093°57'0 0.4
2018-Jun-07 23:01N 29°60' W 093°57'0 0.0
2018-Jun-07 22:31N 29°60' W 093°57'0 0.0
2018-Jun-07 22:01N 29°60' W 093°57'0 0.0
2018-Jun-07 21:30N 29°60' W 093°57'2 3.0
2018-Jun-07 21:01N 30°01' W 093°58'3 6.6
2018-Jun-07 20:31N 30°02' W 094°02'3 5.4
2018-Jun-07 19:59N 30°04' W 094°03'0 0.0
2018-Jun-07 19:29N 30°04' W 094°03'0 0.0
2018-Jun-07 18:59N 30°04' W 094°03'1 1.5
2018-Jun-07 18:28N 30°04' W 094°03'0 0.0
2018-Jun-07 17:58N 30°04' W 094°03'0 0.0
2018-Jun-07 17:28N 30°04' W 094°03'0 0.0
2018-Jun-07 16:58N 30°04' W 094°03'0 0.0
2018-Jun-07 16:28N 30°04' W 094°03'0 0.0
2018-Jun-07 15:58N 30°04' W 094°03'0 0.0
2018-Jun-07 15:29N 30°04' W 094°03'1 1.4
2018-Jun-07 14:57N 30°04' W 094°03'0 0.0
2018-Jun-07 14:30N 30°04' W 094°03'0 0.0
2018-Jun-07 14:00N 30°04' W 094°03'0 0.0
2018-Jun-07 13:30N 30°04' W 094°03'0 0.4
2018-Jun-07 13:00N 30°04' W 094°03'0 0.8
2018-Jun-07 12:30N 30°04' W 094°03'1 1.1
2018-Jun-07 12:00N 30°04' W 094°03'0 0.0
2018-Jun-07 11:30N 30°04' W 094°03'0 0.0
2018-Jun-07 11:00N 30°04' W 094°03'0 0.0
2018-Jun-07 10:30N 30°04' W 094°03'0 0.0
2018-Jun-07 10:00N 30°04' W 094°03'0 0.0
2018-Jun-07 09:30N 30°04' W 094°03'0 0.0
2018-Jun-07 09:00N 30°04' W 094°03'0 0.0
2018-Jun-07 08:30N 30°04' W 094°03'0 0.0
2018-Jun-07 08:00N 30°04' W 094°03'0 0.0
2018-Jun-07 07:30N 30°04' W 094°03'0 0.0
2018-Jun-07 07:00N 30°04' W 094°03'0 0.0
2018-Jun-07 06:30N 30°04' W 094°03'0 0.0
2018-Jun-07 06:00N 30°04' W 094°03'0 0.0
2018-Jun-07 05:30N 30°04' W 094°03'0 0.0
2018-Jun-07 05:00N 30°04' W 094°03'0 0.0
2018-Jun-07 04:30N 30°04' W 094°03'0 0.0
2018-Jun-07 04:00N 30°04' W 094°03'0 0.0
2018-Jun-07 03:30N 30°04' W 094°03'0 0.0
2018-Jun-07 03:00N 30°04' W 094°03'0 0.0
2018-Jun-07 02:30N 30°04' W 094°03'0 0.0
2018-Jun-07 02:01N 30°04' W 094°03'0 0.0
2018-Jun-07 01:30N 30°04' W 094°03'0 0.0
2018-Jun-07 01:00N 30°04' W 094°03'0 0.0
2018-Jun-07 00:30N 30°04' W 094°03'0 0.0
2018-Jun-06 23:59N 30°04' W 094°03'2 4.0
2018-Jun-06 23:30N 30°03' W 094°02'3 5.1
2018-Jun-06 23:00N 30°01' W 093°60'2 5.0
2018-Jun-06 22:30N 29°60' W 093°57'3 6.3
2018-Jun-06 22:00N 29°59' W 093°54'1 1.3
2018-Jun-06 21:28N 29°59' W 093°53'0 0.0
2018-Jun-06 20:58N 29°59' W 093°53'0 0.0
2018-Jun-06 20:28N 29°59' W 093°53'0 0.0
2018-Jun-06 19:58N 29°59' W 093°53'0 0.0
2018-Jun-06 19:28N 29°59' W 093°53'0 0.0
2018-Jun-06 18:58N 29°59' W 093°53'0 0.0
2018-Jun-06 18:28N 29°59' W 093°53'0 0.0
2018-Jun-06 17:58N 29°59' W 093°53'0 0.0
2018-Jun-06 17:28N 29°59' W 093°53'0 0.0
2018-Jun-06 16:58N 29°59' W 093°53'0 0.0
2018-Jun-06 16:28N 29°59' W 093°53'0 0.0
2018-Jun-06 15:58N 29°59' W 093°53'0 0.0
2018-Jun-06 15:28N 29°59' W 093°53'0 0.0
2018-Jun-06 14:58N 29°59' W 093°53'0 0.0
2018-Jun-06 14:28N 29°59' W 093°53'0 0.0
2018-Jun-06 13:58N 29°59' W 093°53'0 0.0
2018-Jun-06 13:28N 29°59' W 093°53'0 0.0
2018-Jun-06 12:58N 29°59' W 093°53'0 0.0
2018-Jun-06 12:28N 29°59' W 093°53'0 0.0
2018-Jun-06 11:58N 29°59' W 093°53'0 0.0
2018-Jun-06 11:28N 29°59' W 093°53'0 0.0
2018-Jun-06 10:58N 29°59' W 093°53'0 0.0
2018-Jun-06 10:28N 29°59' W 093°53'0 0.0
2018-Jun-06 09:58N 29°59' W 093°53'0 0.0
2018-Jun-06 09:28N 29°59' W 093°53'0 0.0
2018-Jun-06 08:55N 29°59' W 093°53'0 0.0
2018-Jun-06 08:28N 29°59' W 093°53'0 0.0
2018-Jun-06 07:58N 29°59' W 093°53'0 0.0
2018-Jun-06 07:28N 29°59' W 093°53'0 0.0
2018-Jun-06 06:58N 29°59' W 093°53'0 0.0
2018-Jun-06 06:28N 29°59' W 093°53'0 0.0
2018-Jun-06 05:58N 29°59' W 093°53'0 0.0
2018-Jun-06 05:28N 29°59' W 093°53'0 0.0
2018-Jun-06 04:58N 29°59' W 093°53'0 0.0
2018-Jun-06 04:28N 29°59' W 093°53'0 0.0
2018-Jun-06 03:55N 29°59' W 093°53'0 0.0
2018-Jun-06 03:28N 29°59' W 093°53'0 0.0
2018-Jun-06 02:58N 29°59' W 093°53'0 0.0
2018-Jun-06 02:28N 29°59' W 093°53'0 0.0
2018-Jun-06 01:58N 29°59' W 093°53'0 0.0
2018-Jun-06 01:28N 29°59' W 093°53'0 0.0
2018-Jun-06 00:58N 29°59' W 093°53'0 0.0
2018-Jun-06 00:28N 29°59' W 093°53'0 0.0
2018-Jun-05 23:58N 29°59' W 093°53'0 0.0
2018-Jun-05 23:28N 29°59' W 093°53'0 0.0
2018-Jun-05 22:58N 29°59' W 093°53'0 0.0
2018-Jun-05 22:28N 29°59' W 093°53'0 0.0
2018-Jun-05 21:58N 29°59' W 093°53'0 0.0
2018-Jun-05 21:28N 29°59' W 093°53'0 0.0
2018-Jun-05 20:58N 29°59' W 093°53'0 0.0
2018-Jun-05 20:28N 29°59' W 093°53'0 0.0
2018-Jun-05 19:58N 29°59' W 093°53'0 0.0
2018-Jun-05 19:28N 29°59' W 093°53'0 0.0
2018-Jun-05 18:58N 29°59' W 093°53'0 0.0
2018-Jun-05 18:28N 29°59' W 093°53'0 0.0
2018-Jun-05 17:58N 29°59' W 093°53'0 0.0
2018-Jun-05 17:28N 29°59' W 093°53'0 0.0
2018-Jun-05 16:58N 29°59' W 093°53'0 0.0
2018-Jun-05 16:28N 29°59' W 093°53'0 0.0
2018-Jun-05 15:58N 29°59' W 093°53'0 0.0
2018-Jun-05 15:28N 29°59' W 093°53'1 1.5
2018-Jun-05 15:00N 29°59' W 093°54'1 2.7
2018-Jun-05 14:30N 29°60' W 093°55'1 2.7
2018-Jun-05 14:00N 29°59' W 093°53'2 3.8
2018-Jun-05 13:30N 29°58' W 093°51'0 0.2
2018-Jun-05 13:00N 29°58' W 093°51'3 5.4
2018-Jun-05 12:30N 29°59' W 093°54'1 1.3
2018-Jun-05 11:59N 29°60' W 093°55'0 0.0
2018-Jun-05 11:29N 29°60' W 093°55'0 0.0
2018-Jun-05 10:59N 29°60' W 093°55'0 0.0
2018-Jun-05 10:29N 29°60' W 093°55'0 0.0
2018-Jun-05 09:59N 29°60' W 093°55'0 0.0
2018-Jun-05 09:29N 29°60' W 093°55'  

Dump ship's entire track history